createdAt,value
2018-10-11T00:00:47.173Z,1013.45
2018-10-11T00:01:46.924Z,1013.42
2018-10-11T00:02:47.208Z,1013.46
2018-10-11T00:03:47.093Z,1013.46
2018-10-11T00:04:46.926Z,1013.48
2018-10-11T00:05:46.905Z,1013.48
2018-10-11T00:06:47.000Z,1013.5
2018-10-11T00:07:46.880Z,1013.51
2018-10-11T00:08:47.146Z,1013.46
2018-10-11T00:09:46.776Z,1013.53
2018-10-11T00:10:47.034Z,1013.47
2018-10-11T00:11:46.905Z,1013.49
2018-10-11T00:12:47.268Z,1013.48
2018-10-11T00:13:47.116Z,1013.49
2018-10-11T00:14:46.909Z,1013.5
2018-10-11T00:15:47.052Z,1013.49
2018-10-11T00:16:46.921Z,1013.49
2018-10-11T00:17:47.156Z,1013.47
2018-10-11T00:18:46.846Z,1013.43
2018-10-11T00:19:46.928Z,1013.49
2018-10-11T00:20:46.964Z,1013.42
2018-10-11T00:21:47.057Z,1013.42
2018-10-11T00:22:46.889Z,1013.44
2018-10-11T00:23:46.816Z,1013.49
2018-10-11T00:24:46.993Z,1013.45
2018-10-11T00:25:46.791Z,1013.49
2018-10-11T00:26:46.735Z,1013.53
2018-10-11T00:27:46.849Z,1013.5
2018-10-11T00:28:46.947Z,1013.5
2018-10-11T00:29:46.808Z,1013.51
2018-10-11T00:30:47.314Z,1013.52
2018-10-11T00:31:46.857Z,1013.46
2018-10-11T00:32:46.653Z,1013.55
2018-10-11T00:33:46.949Z,1013.54
2018-10-11T00:34:46.831Z,1013.55
2018-10-11T00:35:47.023Z,1013.59
2018-10-11T00:36:46.885Z,1013.56
2018-10-11T00:37:47.047Z,1013.56
2018-10-11T00:38:47.338Z,1013.61
2018-10-11T00:39:46.887Z,1013.61
2018-10-11T00:40:46.916Z,1013.57
2018-10-11T00:41:47.086Z,1013.62
2018-10-11T00:42:47.295Z,1013.63
2018-10-11T00:43:46.744Z,1013.66
2018-10-11T00:44:47.764Z,1013.63
2018-10-11T00:45:46.815Z,1013.64
2018-10-11T00:46:47.308Z,1013.63
2018-10-11T00:47:47.004Z,1013.62
2018-10-11T00:48:46.665Z,1013.56
2018-10-11T00:49:47.270Z,1013.52
2018-10-11T00:50:46.958Z,1013.52
2018-10-11T00:51:47.121Z,1013.51
2018-10-11T00:52:47.195Z,1013.5
2018-10-11T00:53:46.889Z,1013.56
2018-10-11T00:54:46.880Z,1013.5
2018-10-11T00:55:46.988Z,1013.49
2018-10-11T00:56:47.160Z,1013.52
2018-10-11T00:57:46.799Z,1013.5
2018-10-11T00:58:46.789Z,1013.46
2018-10-11T00:59:47.192Z,1013.52
2018-10-11T01:00:46.948Z,1013.49
2018-10-11T01:01:46.839Z,1013.47
2018-10-11T01:02:46.925Z,1013.47
2018-10-11T01:03:46.835Z,1013.43
2018-10-11T01:04:47.145Z,1013.44
2018-10-11T01:05:47.027Z,1013.42
2018-10-11T01:06:46.784Z,1013.4
2018-10-11T01:07:47.693Z,1013.39
2018-10-11T01:08:46.959Z,1013.35
2018-10-11T01:09:46.973Z,1013.31
2018-10-11T01:10:46.688Z,1013.3
2018-10-11T01:11:47.066Z,1013.28
2018-10-11T01:12:46.890Z,1013.25
2018-10-11T01:13:46.838Z,1013.22
2018-10-11T01:14:47.089Z,1013.18
2018-10-11T01:15:47.647Z,1013.17
2018-10-11T01:16:46.877Z,1013.17
2018-10-11T01:17:46.905Z,1013.13
2018-10-11T01:18:46.818Z,1013.17
2018-10-11T01:19:46.981Z,1013.17
2018-10-11T01:20:46.892Z,1013.17
2018-10-11T01:21:46.798Z,1013.15
2018-10-11T01:22:46.725Z,1013.19
2018-10-11T01:23:47.314Z,1013.16
2018-10-11T01:24:46.773Z,1013.12
2018-10-11T01:25:46.776Z,1013.15
2018-10-11T01:26:46.879Z,1013.12
2018-10-11T01:27:47.044Z,1013.04
2018-10-11T01:28:46.734Z,1013.07
2018-10-11T01:29:47.453Z,1013.07
2018-10-11T01:30:46.745Z,1013.13
2018-10-11T01:31:46.816Z,1013.09
2018-10-11T01:32:46.829Z,1013.11
2018-10-11T01:33:46.824Z,1013.14
2018-10-11T01:34:46.838Z,1013.13
2018-10-11T01:35:46.862Z,1013.13
2018-10-11T01:36:46.829Z,1013.12
2018-10-11T01:37:46.671Z,1013.08
2018-10-11T01:38:47.528Z,1013.08
2018-10-11T01:39:46.770Z,1013.09
2018-10-11T01:40:47.055Z,1013.06
2018-10-11T01:41:46.824Z,1013.1
2018-10-11T01:42:46.932Z,1013.05
2018-10-11T01:43:46.774Z,1013.05
2018-10-11T01:44:46.738Z,1013.02
2018-10-11T01:45:46.856Z,1013.01
2018-10-11T01:46:46.732Z,1012.95
2018-10-11T01:47:46.866Z,1012.91
2018-10-11T01:48:46.926Z,1012.88
2018-10-11T01:49:46.820Z,1012.86
2018-10-11T01:50:46.683Z,1012.86
2018-10-11T01:51:46.959Z,1012.85
2018-10-11T01:52:47.291Z,1012.86
2018-10-11T01:53:46.834Z,1012.85
2018-10-11T01:54:46.897Z,1012.88
2018-10-11T01:55:46.817Z,1012.86
2018-10-11T01:56:47.183Z,1012.8
2018-10-11T01:57:46.765Z,1012.79
2018-10-11T01:58:46.878Z,1012.8
2018-10-11T01:59:46.846Z,1012.8
2018-10-11T02:00:46.824Z,1012.81
2018-10-11T02:01:47.010Z,1012.81
2018-10-11T02:02:46.773Z,1012.8
2018-10-11T02:03:46.862Z,1012.79
2018-10-11T02:04:47.232Z,1012.76
2018-10-11T02:05:46.710Z,1012.74
2018-10-11T02:06:46.985Z,1012.77
2018-10-11T02:07:47.152Z,1012.82
2018-10-11T02:08:46.978Z,1012.78
2018-10-11T02:09:46.909Z,1012.84
2018-10-11T02:10:47.076Z,1012.79
2018-10-11T02:11:46.823Z,1012.83
2018-10-11T02:12:47.192Z,1012.83
2018-10-11T02:13:46.930Z,1012.85
2018-10-11T02:14:46.919Z,1012.81
2018-10-11T02:15:46.897Z,1012.84
2018-10-11T02:16:46.814Z,1012.82
2018-10-11T02:17:46.864Z,1012.84
2018-10-11T02:18:46.987Z,1012.82
2018-10-11T02:19:47.008Z,1012.81
2018-10-11T02:20:46.790Z,1012.82
2018-10-11T02:21:46.849Z,1012.89
2018-10-11T02:22:46.718Z,1012.88
2018-10-11T02:23:47.101Z,1012.86
2018-10-11T02:24:46.849Z,1012.86
2018-10-11T02:25:47.120Z,1012.83
2018-10-11T02:26:46.803Z,1012.88
2018-10-11T02:27:46.985Z,1012.86
2018-10-11T02:28:47.006Z,1012.92
2018-10-11T02:29:46.815Z,1012.88
2018-10-11T02:30:46.906Z,1012.92
2018-10-11T02:31:47.372Z,1012.9
2018-10-11T02:32:46.866Z,1012.94
2018-10-11T02:33:46.742Z,1012.94
2018-10-11T02:34:46.900Z,1012.94
2018-10-11T02:35:46.911Z,1012.95
2018-10-11T02:36:47.165Z,1012.95
2018-10-11T02:37:47.082Z,1012.96
2018-10-11T02:38:46.973Z,1012.94
2018-10-11T02:39:46.840Z,1012.95
2018-10-11T02:40:46.996Z,1012.96
2018-10-11T02:41:47.310Z,1012.97
2018-10-11T02:42:46.788Z,1012.93
2018-10-11T02:43:46.738Z,1012.96
2018-10-11T02:44:46.874Z,1012.96
2018-10-11T02:45:46.857Z,1012.95
2018-10-11T02:46:47.166Z,1012.97
2018-10-11T02:47:46.842Z,1013.04
2018-10-11T02:48:46.840Z,1013.04
2018-10-11T02:49:46.849Z,1013.06
2018-10-11T02:50:46.809Z,1013.05
2018-10-11T02:51:47.056Z,1013.03
2018-10-11T02:52:46.822Z,1013.01
2018-10-11T02:53:46.925Z,1013.05
2018-10-11T02:54:46.680Z,1013.02
2018-10-11T02:55:46.980Z,1013.01
2018-10-11T02:56:47.340Z,1013
2018-10-11T02:57:46.835Z,1013.07
2018-10-11T02:58:47.217Z,1013.05
2018-10-11T02:59:46.822Z,1013.12
2018-10-11T03:00:47.157Z,1013.1
2018-10-11T03:01:46.989Z,1013.1
2018-10-11T03:02:46.631Z,1013.08
2018-10-11T03:03:46.854Z,1013.09
2018-10-11T03:04:46.835Z,1013.15
2018-10-11T03:05:47.062Z,1013.17
2018-10-11T03:06:46.745Z,1013.18
2018-10-11T03:07:47.273Z,1013.15
2018-10-11T03:08:46.888Z,1013.21
2018-10-11T03:09:46.791Z,1013.23
2018-10-11T03:10:46.791Z,1013.22
2018-10-11T03:11:46.769Z,1013.19
2018-10-11T03:12:46.862Z,1013.16
2018-10-11T03:13:46.794Z,1013.12
2018-10-11T03:14:46.904Z,1013.08
2018-10-11T03:15:46.992Z,1013.07
2018-10-11T03:16:46.717Z,1013.1
2018-10-11T03:17:46.978Z,1013.12
2018-10-11T03:18:46.722Z,1013.14
2018-10-11T03:19:46.950Z,1013.12
2018-10-11T03:20:46.648Z,1013.12
2018-10-11T03:21:46.714Z,1013.09
2018-10-11T03:22:46.852Z,1013.09
2018-10-11T03:23:46.924Z,1013.1
2018-10-11T03:24:46.984Z,1013.04
2018-10-11T03:25:46.759Z,1013.02
2018-10-11T03:26:46.792Z,1013.03
2018-10-11T03:27:47.115Z,1013.03
2018-10-11T03:28:46.718Z,1013.01
2018-10-11T03:29:46.852Z,1013
2018-10-11T03:30:46.711Z,1012.97
2018-10-11T03:31:46.834Z,1012.98
2018-10-11T03:32:47.063Z,1012.96
2018-10-11T03:33:46.751Z,1013
2018-10-11T03:34:46.812Z,1013
2018-10-11T03:35:47.077Z,1012.99
2018-10-11T03:36:46.996Z,1013.03
2018-10-11T03:37:47.536Z,1013.06
2018-10-11T03:38:46.692Z,1013.04
2018-10-11T03:39:47.099Z,1013.09
2018-10-11T03:40:46.674Z,1013.09
2018-10-11T03:41:46.799Z,1013.09
2018-10-11T03:42:46.698Z,1013.1
2018-10-11T03:43:46.740Z,1013.09
2018-10-11T03:44:46.849Z,1013.06
2018-10-11T03:45:46.844Z,1013.1
2018-10-11T03:46:47.097Z,1013.1
2018-10-11T03:47:46.851Z,1013.11
2018-10-11T03:48:47.060Z,1013.08
2018-10-11T03:49:46.795Z,1013.12
2018-10-11T03:50:46.807Z,1013.13
2018-10-11T03:51:46.862Z,1013.13
2018-10-11T03:52:46.862Z,1013.15
2018-10-11T03:53:46.987Z,1013.14
2018-10-11T03:54:46.843Z,1013.17
2018-10-11T03:55:46.840Z,1013.17
2018-10-11T03:56:46.797Z,1013.15
2018-10-11T03:57:47.025Z,1013.15
2018-10-11T03:58:46.615Z,1013.15
2018-10-11T03:59:46.838Z,1013.13
2018-10-11T04:00:47.037Z,1013.16
2018-10-11T04:01:46.956Z,1013.16
2018-10-11T04:02:46.682Z,1013.15
2018-10-11T04:03:47.015Z,1013.09
2018-10-11T04:04:47.142Z,1013.14
2018-10-11T04:05:46.775Z,1013.12
2018-10-11T04:06:46.773Z,1013.18
2018-10-11T04:07:46.723Z,1013.17
2018-10-11T04:08:46.906Z,1013.17
2018-10-11T04:09:46.992Z,1013.22
2018-10-11T04:10:47.097Z,1013.24
2018-10-11T04:11:46.929Z,1013.24
2018-10-11T04:12:46.923Z,1013.18
2018-10-11T04:13:46.825Z,1013.23
2018-10-11T04:14:46.973Z,1013.26
2018-10-11T04:15:47.118Z,1013.19
2018-10-11T04:16:46.814Z,1013.22
2018-10-11T04:17:46.868Z,1013.26
2018-10-11T04:18:46.921Z,1013.27
2018-10-11T04:19:46.957Z,1013.24
2018-10-11T04:20:47.400Z,1013.24
2018-10-11T04:21:46.884Z,1013.24
2018-10-11T04:22:46.765Z,1013.24
2018-10-11T04:23:46.692Z,1013.25
2018-10-11T04:24:46.850Z,1013.27
2018-10-11T04:25:46.948Z,1013.3
2018-10-11T04:26:46.861Z,1013.29
2018-10-11T04:27:47.159Z,1013.31
2018-10-11T04:28:46.870Z,1013.38
2018-10-11T04:29:47.364Z,1013.38
2018-10-11T04:30:47.087Z,1013.39
2018-10-11T04:31:47.076Z,1013.48
2018-10-11T04:32:46.799Z,1013.5
2018-10-11T04:33:46.808Z,1013.5
2018-10-11T04:34:46.790Z,1013.52
2018-10-11T04:35:46.617Z,1013.48
2018-10-11T04:36:46.932Z,1013.46
2018-10-11T04:37:46.787Z,1013.41
2018-10-11T04:38:46.781Z,1013.42
2018-10-11T04:39:46.672Z,1013.4
2018-10-11T04:40:46.727Z,1013.4
2018-10-11T04:41:46.680Z,1013.44
2018-10-11T04:42:47.245Z,1013.36
2018-10-11T04:43:46.697Z,1013.36
2018-10-11T04:44:46.804Z,1013.42
2018-10-11T04:45:46.851Z,1013.45
2018-10-11T04:46:46.801Z,1013.43
2018-10-11T04:47:46.871Z,1013.4
2018-10-11T04:48:46.694Z,1013.47
2018-10-11T04:49:46.629Z,1013.44
2018-10-11T04:50:46.841Z,1013.43
2018-10-11T04:51:46.820Z,1013.42
2018-10-11T04:52:47.161Z,1013.45
2018-10-11T04:53:46.781Z,1013.47
2018-10-11T04:54:46.826Z,1013.45
2018-10-11T04:55:46.641Z,1013.46
2018-10-11T04:56:47.140Z,1013.49
2018-10-11T04:57:46.936Z,1013.52
2018-10-11T04:58:46.682Z,1013.56
2018-10-11T04:59:47.240Z,1013.57
2018-10-11T05:00:46.813Z,1013.58
2018-10-11T05:01:46.752Z,1013.59
2018-10-11T05:02:46.987Z,1013.57
2018-10-11T05:03:46.931Z,1013.58
2018-10-11T05:04:47.044Z,1013.62
2018-10-11T05:05:46.743Z,1013.6
2018-10-11T05:06:47.101Z,1013.61
2018-10-11T05:07:46.894Z,1013.58
2018-10-11T05:08:46.835Z,1013.63
2018-10-11T05:09:46.834Z,1013.58
2018-10-11T05:10:46.792Z,1013.65
2018-10-11T05:11:47.032Z,1013.68
2018-10-11T05:12:47.047Z,1013.68
2018-10-11T05:13:47.047Z,1013.68
2018-10-11T05:14:47.328Z,1013.66
2018-10-11T05:15:47.157Z,1013.64
2018-10-11T05:16:47.076Z,1013.64
2018-10-11T05:17:47.201Z,1013.65
2018-10-11T05:18:47.037Z,1013.62
2018-10-11T05:19:46.927Z,1013.58
2018-10-11T05:20:46.745Z,1013.57
2018-10-11T05:21:47.134Z,1013.64
2018-10-11T05:22:46.821Z,1013.7
2018-10-11T05:23:46.895Z,1013.74
2018-10-11T05:24:46.782Z,1013.79
2018-10-11T05:25:46.878Z,1013.85
2018-10-11T05:26:47.146Z,1013.88
2018-10-11T05:27:46.686Z,1013.86
2018-10-11T05:28:47.032Z,1013.89
2018-10-11T05:29:46.830Z,1013.87
2018-10-11T05:30:46.966Z,1013.84
2018-10-11T05:31:46.743Z,1013.8
2018-10-11T05:32:46.902Z,1013.87
2018-10-11T05:33:47.724Z,1013.83
2018-10-11T05:34:46.969Z,1013.86
2018-10-11T05:35:47.095Z,1013.89
2018-10-11T05:36:46.692Z,1013.89
2018-10-11T05:37:46.909Z,1013.91
2018-10-11T05:38:46.814Z,1014
2018-10-11T05:39:46.991Z,1014.01
2018-10-11T05:40:47.139Z,1014.05
2018-10-11T05:41:47.264Z,1014.03
2018-10-11T05:42:46.742Z,1014.04
2018-10-11T05:43:46.813Z,1014.05
2018-10-11T05:44:46.829Z,1014.04
2018-10-11T05:45:47.190Z,1014.04
2018-10-11T05:46:46.973Z,1014.03
2018-10-11T05:47:47.304Z,1014
2018-10-11T05:48:46.719Z,1013.98
2018-10-11T05:49:46.993Z,1014.06
2018-10-11T05:50:47.251Z,1014.05
2018-10-11T05:51:46.613Z,1014.11
2018-10-11T05:52:47.022Z,1014.15
2018-10-11T05:53:47.240Z,1014.14
2018-10-11T05:54:46.782Z,1014.19
2018-10-11T05:55:46.950Z,1014.14
2018-10-11T05:56:48.295Z,1014.13
2018-10-11T05:57:46.651Z,1014.09
2018-10-11T05:58:47.009Z,1014.08
2018-10-11T05:59:46.742Z,1014.06
2018-10-11T06:00:46.881Z,1014.09
2018-10-11T06:01:46.906Z,1014.09
2018-10-11T06:02:46.800Z,1014.13
2018-10-11T06:03:46.843Z,1014.14
2018-10-11T06:04:46.585Z,1014.19
2018-10-11T06:05:46.714Z,1014.23
2018-10-11T06:06:46.805Z,1014.24
2018-10-11T06:07:46.740Z,1014.3
2018-10-11T06:08:46.831Z,1014.27
2018-10-11T06:09:46.772Z,1014.31
2018-10-11T06:10:46.787Z,1014.28
2018-10-11T06:11:46.937Z,1014.32
2018-10-11T06:12:46.790Z,1014.34
2018-10-11T06:13:46.704Z,1014.4
2018-10-11T06:14:46.910Z,1014.43
2018-10-11T06:15:46.652Z,1014.48
2018-10-11T06:16:46.766Z,1014.5
2018-10-11T06:17:47.249Z,1014.55
2018-10-11T06:18:46.848Z,1014.54
2018-10-11T06:19:46.816Z,1014.51
2018-10-11T06:20:47.057Z,1014.54
2018-10-11T06:21:46.759Z,1014.6
2018-10-11T06:22:47.120Z,1014.68
2018-10-11T06:23:46.815Z,1014.65
2018-10-11T06:24:46.999Z,1014.61
2018-10-11T06:25:47.223Z,1014.62
2018-10-11T06:26:47.228Z,1014.61
2018-10-11T06:27:46.960Z,1014.63
2018-10-11T06:28:47.233Z,1014.68
2018-10-11T06:29:46.817Z,1014.69
2018-10-11T06:30:47.051Z,1014.75
2018-10-11T06:31:47.335Z,1014.76
2018-10-11T06:32:46.819Z,1014.75
2018-10-11T06:33:47.152Z,1014.79
2018-10-11T06:34:46.808Z,1014.8
2018-10-11T06:35:47.328Z,1014.87
2018-10-11T06:36:46.799Z,1014.85
2018-10-11T06:37:46.896Z,1014.89
2018-10-11T06:38:46.873Z,1014.91
2018-10-11T06:39:46.666Z,1014.88
2018-10-11T06:40:46.609Z,1014.91
2018-10-11T06:41:47.159Z,1014.91
2018-10-11T06:42:47.218Z,1014.92
2018-10-11T06:43:46.772Z,1015
2018-10-11T06:44:46.788Z,1014.96
2018-10-11T06:45:46.882Z,1014.97
2018-10-11T06:46:46.995Z,1014.95
2018-10-11T06:47:46.916Z,1014.99
2018-10-11T06:48:46.611Z,1015
2018-10-11T06:49:47.080Z,1014.97
2018-10-11T06:50:46.574Z,1015.02
2018-10-11T06:51:46.760Z,1014.94
2018-10-11T06:52:46.787Z,1014.95
2018-10-11T06:53:46.951Z,1014.86
2018-10-11T06:54:46.891Z,1014.88
2018-10-11T06:55:47.005Z,1014.88
2018-10-11T06:56:47.018Z,1014.88
2018-10-11T06:57:47.167Z,1014.92
2018-10-11T06:58:46.824Z,1014.98
2018-10-11T06:59:46.872Z,1014.93
2018-10-11T07:00:46.810Z,1014.99
2018-10-11T07:01:47.388Z,1014.97
2018-10-11T07:02:47.153Z,1014.96
2018-10-11T07:03:46.576Z,1014.99
2018-10-11T07:04:46.838Z,1015.02
2018-10-11T07:05:46.853Z,1014.98
2018-10-11T07:06:46.832Z,1014.97
2018-10-11T07:07:46.905Z,1015.04
2018-10-11T07:08:46.962Z,1015.04
2018-10-11T07:09:46.853Z,1015.1
2018-10-11T07:10:47.204Z,1015.14
2018-10-11T07:11:46.982Z,1015.15
2018-10-11T07:12:46.757Z,1015.16
2018-10-11T07:13:46.895Z,1015.18
2018-10-11T07:14:46.953Z,1015.21
2018-10-11T07:15:46.859Z,1015.24
2018-10-11T07:16:46.842Z,1015.28
2018-10-11T07:17:46.834Z,1015.32
2018-10-11T07:18:46.804Z,1015.3
2018-10-11T07:19:46.682Z,1015.25
2018-10-11T07:20:46.938Z,1015.28
2018-10-11T07:21:46.842Z,1015.25
2018-10-11T07:22:46.741Z,1015.28
2018-10-11T07:23:46.781Z,1015.32
2018-10-11T07:24:46.863Z,1015.33
2018-10-11T07:25:46.899Z,1015.36
2018-10-11T07:26:46.561Z,1015.33
2018-10-11T07:38:50.420Z,1015.47
2018-10-11T07:40:49.536Z,1015.61
2018-10-11T07:41:49.215Z,1015.64
2018-10-11T07:42:50.017Z,1015.65
2018-10-11T07:43:49.332Z,1015.63
2018-10-11T07:45:49.507Z,1015.59
2018-10-11T07:46:49.561Z,1015.62
2018-10-11T07:48:49.478Z,1015.59
2018-10-11T07:49:49.265Z,1015.59
2018-10-11T07:50:49.389Z,1015.63
2018-10-11T07:51:49.569Z,1015.63
2018-10-11T07:53:49.294Z,1015.59
2018-10-11T07:54:49.424Z,1015.59
2018-10-11T07:55:49.447Z,1015.56
2018-10-11T07:57:49.691Z,1015.66
2018-10-11T07:58:49.179Z,1015.7
2018-10-11T07:59:49.404Z,1015.68
2018-10-11T08:00:49.701Z,1015.66
2018-10-11T08:02:49.459Z,1015.66
2018-10-11T08:04:49.426Z,1015.72
2018-10-11T08:05:49.432Z,1015.73
2018-10-11T08:06:49.676Z,1015.73
2018-10-11T08:08:49.566Z,1015.67
2018-10-11T08:09:49.439Z,1015.73
2018-10-11T08:10:50.383Z,1015.74
2018-10-11T08:13:49.379Z,1015.75
2018-10-11T08:14:49.766Z,1015.76
2018-10-11T08:15:50.377Z,1015.72
2018-10-11T08:16:50.171Z,1015.73
2018-10-11T08:18:49.770Z,1015.67
2018-10-11T08:19:49.807Z,1015.64
2018-10-11T08:20:49.353Z,1015.7
2018-10-11T08:21:49.521Z,1015.7
2018-10-11T08:24:49.794Z,1015.76
2018-10-11T08:25:51.477Z,1015.74
2018-10-11T08:28:49.551Z,1015.75
2018-10-11T08:29:49.505Z,1015.74
2018-10-11T08:30:49.384Z,1015.76
2018-10-11T08:31:49.345Z,1015.7
2018-10-11T08:33:49.429Z,1015.67
2018-10-11T08:34:50.203Z,1015.64
2018-10-11T08:35:49.210Z,1015.67
2018-10-11T08:36:49.556Z,1015.67
2018-10-11T08:38:49.256Z,1015.67
2018-10-11T08:39:49.267Z,1015.69
2018-10-11T08:40:49.269Z,1015.7
2018-10-11T08:41:49.653Z,1015.65
2018-10-11T08:43:49.458Z,1015.65
2018-10-11T08:44:49.318Z,1015.66
2018-10-11T08:45:49.394Z,1015.71
2018-10-11T08:46:49.677Z,1015.77
2018-10-11T08:48:49.656Z,1015.81
2018-10-11T08:49:49.306Z,1015.84
2018-10-11T08:50:49.733Z,1015.83
2018-10-11T08:51:49.481Z,1015.8
2018-10-11T08:53:49.239Z,1015.88
2018-10-11T08:54:49.840Z,1015.88
2018-10-11T08:56:49.380Z,1015.87
2018-10-11T08:57:50.289Z,1015.81
2018-10-11T08:58:49.778Z,1015.88
2018-10-11T08:59:50.682Z,1015.88
2018-10-11T09:01:50.103Z,1015.89
2018-10-11T09:02:49.261Z,1015.89
2018-10-11T09:03:50.163Z,1015.88
2018-10-11T09:04:49.394Z,1015.85
2018-10-11T09:07:49.737Z,1015.8
2018-10-11T09:08:49.733Z,1015.84
2018-10-11T09:09:54.025Z,1015.81
2018-10-11T09:10:50.098Z,1015.77
2018-10-11T09:12:49.642Z,1015.74
2018-10-11T09:13:49.995Z,1015.77
2018-10-11T09:14:49.429Z,1015.77
2018-10-11T09:15:49.585Z,1015.76
2018-10-11T09:17:49.552Z,1015.74
2018-10-11T09:18:49.615Z,1015.71
2018-10-11T09:19:49.780Z,1015.72
2018-10-11T09:20:49.603Z,1015.68
2018-10-11T09:23:49.518Z,1015.65
2018-10-11T09:24:49.347Z,1015.57
2018-10-11T09:25:49.650Z,1015.62
2018-10-11T09:26:49.137Z,1015.6
2018-10-11T09:28:49.653Z,1015.65
2018-10-11T09:29:49.583Z,1015.67
2018-10-11T09:30:49.499Z,1015.63
2018-10-11T09:32:49.267Z,1015.62
2018-10-11T09:33:49.363Z,1015.59
2018-10-11T09:35:49.639Z,1015.61
2018-10-11T09:37:49.646Z,1015.65
2018-10-11T09:38:49.280Z,1015.63
2018-10-11T09:39:49.685Z,1015.64
2018-10-11T09:40:49.366Z,1015.68
2018-10-11T09:42:49.546Z,1015.67
2018-10-11T09:43:49.646Z,1015.62
2018-10-11T09:45:49.782Z,1015.59
2018-10-11T09:46:49.368Z,1015.59
2018-10-11T09:47:49.312Z,1015.6
2018-10-11T09:48:49.826Z,1015.58
2018-10-11T09:50:49.655Z,1015.62
2018-10-11T09:51:49.656Z,1015.64
2018-10-11T09:52:49.261Z,1015.68
2018-10-11T09:53:49.473Z,1015.67
2018-10-11T09:55:49.403Z,1015.68
2018-10-11T09:56:49.603Z,1015.65
2018-10-11T09:57:49.741Z,1015.69
2018-10-11T09:58:49.421Z,1015.64
2018-10-11T10:00:49.433Z,1015.64
2018-10-11T10:01:49.767Z,1015.66
2018-10-11T10:03:49.665Z,1015.71
2018-10-11T10:04:49.311Z,1015.71
2018-10-11T10:05:49.363Z,1015.69
2018-10-11T10:06:49.216Z,1015.73
2018-10-11T10:08:49.539Z,1015.72
2018-10-11T10:09:49.690Z,1015.71
2018-10-11T10:10:49.666Z,1015.72
2018-10-11T10:11:49.229Z,1015.7
2018-10-11T10:13:49.575Z,1015.74
2018-10-11T10:14:49.300Z,1015.71
2018-10-11T10:15:49.248Z,1015.72
2018-10-11T10:16:49.277Z,1015.79
2018-10-11T10:18:49.399Z,1015.73
2018-10-11T10:19:49.345Z,1015.76
2018-10-11T10:21:49.198Z,1015.77
2018-10-11T10:22:49.314Z,1015.74
2018-10-11T10:23:49.563Z,1015.81
2018-10-11T10:24:49.248Z,1015.78
2018-10-11T10:26:49.714Z,1015.78
2018-10-11T10:27:49.271Z,1015.79
2018-10-11T10:28:49.384Z,1015.75
2018-10-11T10:31:49.263Z,1015.77
2018-10-11T10:32:49.625Z,1015.73
2018-10-11T10:34:49.312Z,1015.73
2018-10-11T10:35:49.366Z,1015.74
2018-10-11T10:36:49.334Z,1015.74
2018-10-11T10:37:50.180Z,1015.73
2018-10-11T10:39:49.905Z,1015.71
2018-10-11T10:40:49.671Z,1015.68
2018-10-11T10:41:49.221Z,1015.71
2018-10-11T10:42:49.343Z,1015.71
2018-10-11T10:44:49.702Z,1015.69
2018-10-11T10:45:49.667Z,1015.73
2018-10-11T10:46:49.290Z,1015.67
2018-10-11T10:47:49.755Z,1015.72
2018-10-11T10:49:49.217Z,1015.67
2018-10-11T10:50:49.654Z,1015.69
2018-10-11T10:51:49.651Z,1015.66
2018-10-11T10:52:49.379Z,1015.64
2018-10-11T10:54:49.625Z,1015.65
2018-10-11T10:56:49.601Z,1015.62
2018-10-11T10:57:49.480Z,1015.63
2018-10-11T10:59:49.212Z,1015.62
2018-10-11T11:00:49.472Z,1015.55
2018-10-11T11:01:49.298Z,1015.6
2018-10-11T11:02:49.531Z,1015.6
2018-10-11T11:04:49.653Z,1015.64
2018-10-11T11:05:49.390Z,1015.62
2018-10-11T11:07:49.996Z,1015.6
2018-10-11T11:08:49.566Z,1015.52
2018-10-11T11:09:49.214Z,1015.56
2018-10-11T11:11:49.327Z,1015.48
2018-10-11T11:12:49.301Z,1015.42
2018-10-11T11:13:49.339Z,1015.41
2018-10-11T11:14:49.418Z,1015.33
2018-10-11T11:16:49.402Z,1015.3
2018-10-11T11:17:49.529Z,1015.34
2018-10-11T11:19:49.305Z,1015.28
2018-10-11T11:20:49.613Z,1015.26
2018-10-11T11:21:49.544Z,1015.27
2018-10-11T11:25:49.606Z,1015.28
2018-10-11T11:26:49.482Z,1015.22
2018-10-11T11:27:49.789Z,1015.19
2018-10-11T11:30:49.573Z,1015.2
2018-10-11T11:32:49.625Z,1015.18
2018-10-11T11:33:49.271Z,1015.2
2018-10-11T11:34:49.347Z,1015.18
2018-10-11T11:36:49.444Z,1015.23
2018-10-11T11:37:49.587Z,1015.26
2018-10-11T11:38:49.320Z,1015.23
2018-10-11T11:41:49.617Z,1015.26
2018-10-11T11:43:49.528Z,1015.14
2018-10-11T11:44:49.224Z,1015.15
2018-10-11T11:45:49.539Z,1015.14
2018-10-11T11:47:49.146Z,1015.13
2018-10-11T11:48:49.460Z,1015.05
2018-10-11T11:49:49.383Z,1015
2018-10-11T11:50:49.131Z,1014.99
2018-10-11T11:52:49.408Z,1014.99
2018-10-11T11:53:49.250Z,1015.05
2018-10-11T11:54:49.249Z,1015.01
2018-10-11T11:55:49.340Z,1015.02
2018-10-11T11:57:49.781Z,1015.01
2018-10-11T11:59:49.644Z,1014.96
2018-10-11T12:00:49.421Z,1014.94
2018-10-11T12:02:50.243Z,1014.96
2018-10-11T12:03:49.376Z,1014.98
2018-10-11T12:04:49.125Z,1014.93
2018-10-11T12:05:49.406Z,1014.97
2018-10-11T12:07:49.791Z,1014.97
2018-10-11T12:08:49.703Z,1014.99
2018-10-11T12:10:49.516Z,1015.04
2018-10-11T12:11:49.165Z,1015.1
2018-10-11T12:12:49.318Z,1015.09
2018-10-11T12:13:49.632Z,1015.13
2018-10-11T12:15:49.130Z,1015.13
2018-10-11T12:16:49.297Z,1015.15
2018-10-11T12:17:49.480Z,1015.2
2018-10-11T12:18:49.515Z,1015.13
2018-10-11T12:20:49.331Z,1015.18
2018-10-11T12:21:50.126Z,1015.13
2018-10-11T12:23:49.606Z,1015.18
2018-10-11T12:24:49.382Z,1015.16
2018-10-11T12:26:50.011Z,1015.19
2018-10-11T12:27:49.230Z,1015.21
2018-10-11T12:28:49.500Z,1015.22
2018-10-11T12:29:49.249Z,1015.22
2018-10-11T12:31:49.366Z,1015.23
2018-10-11T12:32:49.454Z,1015.2
2018-10-11T12:33:49.311Z,1015.19
2018-10-11T12:34:49.428Z,1015.21
2018-10-11T12:36:49.669Z,1015.2
2018-10-11T12:37:50.018Z,1015.2
2018-10-11T12:38:49.750Z,1015.2
2018-10-11T12:39:49.672Z,1015.21
2018-10-11T12:42:49.692Z,1015.2
2018-10-11T12:43:49.327Z,1015.19
2018-10-11T12:44:49.262Z,1015.14
2018-10-11T12:47:49.483Z,1015.15
2018-10-11T12:48:49.621Z,1015.11
2018-10-11T12:49:49.745Z,1015.1
2018-10-11T12:51:50.011Z,1015.1
2018-10-11T12:52:49.408Z,1015.12
2018-10-11T12:53:49.378Z,1015.1
2018-10-11T12:54:49.442Z,1015.08
2018-10-11T12:56:49.757Z,1015.1
2018-10-11T12:57:49.500Z,1015.17
2018-10-11T12:58:49.325Z,1015.14
2018-10-11T12:59:49.253Z,1015.13
2018-10-11T13:01:49.115Z,1015.13
2018-10-11T13:02:49.918Z,1015.15
2018-10-11T13:04:49.398Z,1015.09
2018-10-11T13:05:49.453Z,1015.09
2018-10-11T13:06:49.257Z,1015.07
2018-10-11T13:07:49.318Z,1015.08
2018-10-11T13:10:49.228Z,1015.07
2018-10-11T13:11:49.119Z,1015.04
2018-10-11T13:12:49.318Z,1015.07
2018-10-11T13:13:53.144Z,1015.07
2018-10-11T13:15:49.887Z,1015.01
2018-10-11T13:16:49.268Z,1015.07
2018-10-11T13:17:49.103Z,1015.06
2018-10-11T13:18:49.361Z,1015.11
2018-10-11T13:20:49.237Z,1015.11
2018-10-11T13:21:49.439Z,1015.08
2018-10-11T13:22:49.371Z,1015.15
2018-10-11T13:24:49.809Z,1015.12
2018-10-11T13:26:49.646Z,1015.14
2018-10-11T13:27:49.268Z,1015.09
2018-10-11T13:28:49.766Z,1015.07
2018-10-11T13:29:49.512Z,1015.05
2018-10-11T13:31:49.309Z,1015.03
2018-10-11T13:32:49.112Z,1015.05
2018-10-11T13:33:53.135Z,1015.01
2018-10-11T13:36:49.385Z,1014.99
2018-10-11T13:37:49.203Z,1014.98
2018-10-11T13:38:49.292Z,1015
2018-10-11T13:39:58.163Z,1014.93
2018-10-11T13:41:49.809Z,1014.93
2018-10-11T13:44:49.353Z,1014.9
2018-10-11T13:46:01.203Z,1014.87
2018-10-11T13:47:49.513Z,1014.92
2018-10-11T13:49:49.580Z,1014.87
2018-10-11T13:50:49.323Z,1014.79
2018-10-11T13:51:49.223Z,1014.72
2018-10-11T13:53:58.895Z,1014.68
2018-10-11T13:57:49.207Z,1014.65
2018-10-11T13:58:49.338Z,1014.73
2018-10-11T13:59:49.375Z,1014.76
2018-10-11T14:00:49.277Z,1014.9
2018-10-11T14:02:49.101Z,1015.06
2018-10-11T14:03:49.264Z,1015.1
2018-10-11T14:04:49.238Z,1015.09
2018-10-11T14:05:49.625Z,1015.03
2018-10-11T14:08:49.089Z,1015.02